Time;durP1;ratioP1;P1;durP2;ratioP2;P2;SDS_P1;SDS_P2;PMS_P1;PMS_P2;Temp;Humidity;BMP_temperature;BMP_pressure;BME280_temperature;BME280_humidity;BME280_pressure;Samples;Min_cycle;Max_cycle;Signal;HPM_P1;HPM_P2
2023/03/02 00:00:59;;;;;;;0.55;0.52;;;;;;;4.63;100.00;100376.06;6187803;23;20039;-93
2023/03/02 00:03:25;;;;;;;0.30;0.30;;;;;;;4.59;100.00;100378.81;6187752;23;20040;-94
2023/03/02 00:05:53;;;;;;;0.80;0.80;;;;;;;4.50;100.00;100374.84;6211280;23;20449;-94
2023/03/02 00:08:18;;;;;;;1.10;0.77;;;;;;;4.44;100.00;100371.72;6186608;23;20079;-93
2023/03/02 00:10:44;;;;;;;0.82;0.82;;;;;;;4.38;100.00;100365.00;6211719;23;20314;-93
2023/03/02 00:13:11;;;;;;;0.75;0.68;;;;;;;4.38;100.00;100386.97;6185648;23;20083;-92
2023/03/02 00:15:37;;;;;;;2.20;0.68;;;;;;;4.24;100.00;100381.44;6161497;23;20012;-93
2023/03/02 00:18:02;;;;;;;3.60;1.48;;;;;;;4.22;100.00;100378.28;6185354;23;20328;-93
2023/03/02 00:20:28;;;;;;;0.68;0.38;;;;;;;4.11;100.00;100383.72;6162987;23;20016;-92
2023/03/02 00:22:54;;;;;;;1.40;1.30;;;;;;;3.95;100.00;100374.22;6211255;23;20036;-95
2023/03/02 00:25:19;;;;;;;1.25;1.20;;;;;;;3.90;100.00;100372.63;6186461;23;20500;-92
2023/03/02 00:27:45;;;;;;;1.35;1.25;;;;;;;3.86;100.00;100382.00;6211930;23;20088;-93
2023/03/02 00:30:11;;;;;;;1.13;0.88;;;;;;;3.85;100.00;100383.19;6161725;23;20361;-93
2023/03/02 00:32:37;;;;;;;2.13;1.92;;;;;;;3.56;100.00;100341.09;6182258;23;20341;-93
2023/03/02 00:35:03;;;;;;;1.50;1.40;;;;;;;3.76;100.00;100364.34;6211632;23;20012;-93
2023/03/02 00:37:29;;;;;;;2.20;2.08;;;;;;;3.76;100.00;100365.09;6186750;23;20080;-93
2023/03/02 00:39:55;;;;;;;0.77;0.77;;;;;;;3.62;100.00;100339.53;6161482;23;20108;-94
2023/03/02 00:42:21;;;;;;;0.77;0.50;;;;;;;3.86;100.00;100376.53;6184801;23;20017;-92
2023/03/02 00:44:46;;;;;;;0.88;0.88;;;;;;;3.83;100.00;100367.13;6183824;23;20079;-93
2023/03/02 00:47:12;;;;;;;0.60;0.60;;;;;;;3.96;100.00;100378.56;6186312;23;20001;-94
2023/03/02 00:49:38;;;;;;;0.47;0.35;;;;;;;4.01;100.00;100383.66;6184624;23;20020;-94
2023/03/02 00:52:04;;;;;;;0.30;0.30;;;;;;;3.75;100.00;100338.06;6159598;23;20436;-93
2023/03/02 00:54:30;;;;;;;0.57;0.57;;;;;;;3.80;100.00;100339.66;6210467;23;20020;-92
2023/03/02 00:56:56;;;;;;;1.67;1.35;;;;;;;4.07;100.00;100391.16;6184834;23;20074;-93
2023/03/02 00:59:27;;;;;;;0.98;0.98;;;;;;;4.05;100.00;100378.97;6161832;23;20016;-93
2023/03/02 01:02:13;;;;;;;0.40;0.40;;;;;;;3.85;100.00;100361.22;6191026;23;20484;-94
2023/03/02 01:04:40;;;;;;;3.63;1.63;;;;;;;4.00;100.00;100376.63;6161126;23;20017;-93
2023/03/02 01:07:12;;;;;;;1.27;1.23;;;;;;;4.00;100.00;100382.91;6185246;23;20004;-92
2023/03/02 01:09:39;;;;;;;1.02;1.02;;;;;;;4.03;100.00;100370.34;6209278;23;20016;-92
2023/03/02 01:12:08;;;;;;;1.67;1.20;;;;;;;4.04;100.00;100382.91;6160707;23;20004;-93
2023/03/02 01:14:37;;;;;;;1.38;1.15;;;;;;;4.00;100.00;100368.38;6185720;23;20497;-92
2023/03/02 01:17:05;;;;;;;0.40;0.40;;;;;;;4.09;100.00;100377.03;6184074;23;20008;-93
2023/03/02 01:19:31;;;;;;;1.02;0.82;;;;;;;4.05;100.00;100376.22;6160947;23;20095;-94
2023/03/02 01:21:56;;;;;;;0.50;0.50;;;;;;;4.11;100.00;100378.25;6185723;23;20433;-93
2023/03/02 01:24:22;;;;;;;4.18;1.45;;;;;;;4.11;100.00;100381.00;6184924;23;20025;-92
2023/03/02 01:26:48;;;;;;;0.17;0.17;;;;;;;4.09;100.00;100375.09;6186261;23;20070;-93
2023/03/02 01:29:13;;;;;;;0.25;0.25;;;;;;;4.11;100.00;100377.44;6186720;23;20342;-93
2023/03/02 01:31:39;;;;;;;1.45;1.35;;;;;;;3.76;100.00;100318.47;6188011;23;20019;-93
2023/03/02 01:34:04;;;;;;;1.50;1.48;;;;;;;3.96;100.00;100334.66;6162621;23;20016;-94
2023/03/02 01:36:30;;;;;;;0.88;0.88;;;;;;;4.17;100.00;100370.41;6187624;23;20070;-93
2023/03/02 01:38:55;;;;;;;0.77;0.77;;;;;;;4.05;100.00;100335.06;6208528;23;19996;-92
2023/03/02 01:41:21;;;;;;;0.50;0.50;;;;;;;3.95;100.00;100330.31;6224820;23;20147;-95
2023/03/02 01:43:47;;;;;;;1.15;1.05;;;;;;;3.92;100.00;100320.13;6187378;23;20529;-92
2023/03/02 01:46:34;;;;;;;0.80;0.73;;;;;;;4.14;100.00;100365.69;6187477;23;20012;-96
2023/03/02 01:49:06;;;;;;;0.70;0.70;;;;;;;4.15;100.00;100365.31;6212932;23;20013;-93
2023/03/02 01:51:51;;;;;;;2.22;2.10;;;;;;;4.07;100.00;100350.00;6190728;23;20024;-93
2023/03/02 01:54:21;;;;;;;4.30;2.78;;;;;;;4.20;100.00;100367.69;6187036;23;20094;-93
2023/03/02 01:56:51;;;;;;;0.47;0.47;;;;;;;4.20;100.00;100364.16;6187672;23;20020;-92
2023/03/02 01:59:19;;;;;;;0.93;0.93;;;;;;;4.20;100.00;100364.16;6186759;23;20066;-93
2023/03/02 02:07:09;;;;;;;0.85;0.85;;;;;;;4.18;100.00;100361.00;6137955;23;20053;-90
2023/03/02 02:09:40;;;;;;;0.77;0.65;;;;;;;4.20;100.00;100355.94;6100445;23;20335;-90
2023/03/02 02:12:28;;;;;;;0.17;0.17;;;;;;;4.18;100.00;100342.56;6100440;23;20278;-89
2023/03/02 02:14:59;;;;;;;0.55;0.55;;;;;;;4.18;100.00;100339.84;6100896;23;20025;-91
2023/03/02 02:17:29;;;;;;;5.82;1.95;;;;;;;4.22;100.00;100343.38;6101964;23;20445;-91
2023/03/02 02:20:08;;;;;;;0.00;0.00;;;;;;;4.25;100.00;100341.81;6101149;23;20013;-91
2023/03/02 02:22:44;;;;;;;1.27;1.17;;;;;;;4.23;100.00;100328.47;6126159;23;20017;-91
2023/03/02 02:25:21;;;;;;;0.00;0.00;;;;;;;4.22;100.00;100335.13;6101013;23;20025;-90
2023/03/02 02:27:48;;;;;;;1.02;0.93;;;;;;;4.18;100.00;100334.34;6101643;23;20040;-90
2023/03/02 02:30:14;;;;;;;1.65;0.85;;;;;;;4.22;100.00;100328.84;6099736;23;20437;-91
2023/03/02 02:32:40;;;;;;;3.50;3.20;;;;;;;4.19;100.00;100329.63;6098950;23;20010;-90
2023/03/02 02:35:11;;;;;;;1.08;0.98;;;;;;;4.12;100.00;100319.44;6098557;23;20339;-91
2023/03/02 02:37:44;;;;;;;0.85;0.75;;;;;;;4.12;100.00;100321.38;6100112;23;20022;-91
2023/03/02 02:40:16;;;;;;;1.40;1.27;;;;;;;4.09;100.00;100311.94;6099262;23;20018;-91
2023/03/02 02:42:45;;;;;;;0.50;0.50;;;;;;;4.03;100.00;100323.69;6100120;23;20021;-91
2023/03/02 02:45:23;;;;;;;0.95;0.95;;;;;;;4.01;100.00;100315.03;6098792;23;20020;-91
2023/03/02 02:47:49;;;;;;;3.00;1.63;;;;;;;3.94;100.00;100329.53;6098464;23;20089;-91
2023/03/02 02:50:24;;;;;;;2.03;1.90;;;;;;;3.87;100.00;100334.19;6100760;23;20502;-90
2023/03/02 02:53:13;;;;;;;1.13;1.10;;;;;;;3.86;100.00;100325.19;6098730;23;20024;-92
2023/03/02 02:55:40;;;;;;;3.38;2.05;;;;;;;3.81;100.00;100333.78;6099833;23;20017;-91
2023/03/02 02:58:18;;;;;;;1.83;1.73;;;;;;;3.76;100.00;100328.66;6100536;23;20040;-91
2023/03/02 03:00:44;;;;;;;0.35;0.35;;;;;;;3.71;100.00;100324.31;6099475;23;20100;-91
2023/03/02 03:03:29;;;;;;;1.95;1.85;;;;;;;3.79;100.00;100325.16;6093851;23;20033;-91
2023/03/02 03:05:59;;;;;;;0.32;0.32;;;;;;;3.78;100.00;100331.00;6118390;23;20025;-91
2023/03/02 03:08:40;;;;;;;0.17;0.17;;;;;;;3.82;100.00;100323.59;6118337;23;20113;-90
2023/03/02 03:11:08;;;;;;;0.82;0.82;;;;;;;3.75;100.00;100316.91;6095334;23;20022;-92
2023/03/02 03:13:34;;;;;;;2.33;2.13;;;;;;;3.82;100.00;100320.84;6070495;23;20022;-91
2023/03/02 03:16:00;;;;;;;0.20;0.20;;;;;;;3.82;100.00;100320.84;6094705;23;20142;-90
2023/03/02 03:18:26;;;;;;;0.47;0.47;;;;;;;3.77;100.00;100313.75;6118346;23;20442;-90
2023/03/02 03:20:52;;;;;;;0.77;0.77;;;;;;;3.79;100.00;100322.41;6118545;23;20018;-91
2023/03/02 03:23:18;;;;;;;2.25;2.10;;;;;;;3.64;100.00;100283.13;6116367;23;20261;-92
2023/03/02 03:25:44;;;;;;;1.65;1.38;;;;;;;3.86;100.00;100316.94;6118286;23;20258;-91
2023/03/02 03:28:09;;;;;;;1.85;1.35;;;;;;;3.81;100.00;100298.09;6119588;23;20028;-91
2023/03/02 03:30:35;;;;;;;0.32;0.32;;;;;;;3.78;100.00;100298.09;6118498;23;20018;-91
2023/03/02 03:33:01;;;;;;;1.95;0.80;;;;;;;3.95;100.00;100320.13;6118080;23;20106;-91
2023/03/02 03:35:27;;;;;;;2.20;2.05;;;;;;;4.01;100.00;100317.78;6118726;23;20014;-91
2023/03/02 03:37:53;;;;;;;0.32;0.32;;;;;;;4.06;100.00;100320.16;6117804;23;20022;-91
2023/03/02 03:40:19;;;;;;;0.80;0.80;;;;;;;4.08;100.00;100320.59;6094554;23;20026;-91
2023/03/02 03:42:46;;;;;;;0.60;0.60;;;;;;;4.09;100.00;100319.38;6118685;23;20080;-91
2023/03/02 03:45:12;;;;;;;0.40;0.40;;;;;;;4.12;100.00;100330.41;6069094;23;20022;-90
2023/03/02 03:47:38;;;;;;;1.40;1.30;;;;;;;4.14;100.00;100324.50;6094754;23;20029;-90
2023/03/02 03:50:07;;;;;;;0.38;0.38;;;;;;;4.15;100.00;100312.38;6117943;23;20096;-91
2023/03/02 03:52:33;;;;;;;0.20;0.20;;;;;;;4.19;100.00;100316.69;6069311;23;20018;-91
2023/03/02 03:55:09;;;;;;;0.20;0.20;;;;;;;4.15;100.00;100302.19;6119499;23;20032;-91
2023/03/02 03:57:34;;;;;;;0.10;0.10;;;;;;;4.22;100.00;100324.16;6118403;23;20022;-91
2023/03/02 04:00:01;;;;;;;1.25;1.15;;;;;;;4.03;100.00;100293.50;6117594;23;20014;-91
2023/03/02 04:02:27;;;;;;;0.63;0.63;;;;;;;4.27;100.00;100336.72;6119572;23;20028;-91
2023/03/02 04:04:52;;;;;;;0.85;0.65;;;;;;;4.27;100.00;100324.94;6117240;23;20398;-91
2023/03/02 04:07:18;;;;;;;1.33;1.23;;;;;;;4.30;100.00;100330.44;6119684;23;20080;-91
2023/03/02 04:09:45;;;;;;;0.60;0.60;;;;;;;4.30;100.00;100319.47;6070937;23;20022;-90
2023/03/02 04:12:12;;;;;;;1.85;1.48;;;;;;;4.26;100.00;100335.16;6094930;23;20017;-92
2023/03/02 04:14:42;;;;;;;0.68;0.63;;;;;;;4.31;100.00;100337.53;6095745;23;20156;-91
2023/03/02 04:17:08;;;;;;;1.75;1.65;;;;;;;4.32;100.00;100328.13;6117617;23;20050;-90
2023/03/02 04:19:38;;;;;;;0.50;0.50;;;;;;;4.35;100.00;100321.84;6094675;23;20014;-90
2023/03/02 04:22:04;;;;;;;1.80;1.70;;;;;;;4.32;100.00;100333.63;6118928;23;20097;-90
2023/03/02 04:24:31;;;;;;;1.70;1.63;;;;;;;4.37;100.00;100335.19;6119051;23;20022;-91
2023/03/02 04:27:00;;;;;;;0.32;0.32;;;;;;;4.35;100.00;100330.09;6117938;23;20026;-91
2023/03/02 04:29:25;;;;;;;1.45;0.45;;;;;;;4.34;100.00;100325.75;6120171;23;20024;-90
2023/03/02 04:31:51;;;;;;;0.00;0.00;;;;;;;4.32;98.51;100327.34;6119499;23;20014;-91
2023/03/02 04:34:19;;;;;;;0.10;0.10;;;;;;;4.36;99.74;100328.91;6096389;23;20018;-92
2023/03/02 04:36:45;;;;;;;1.55;0.93;;;;;;;4.31;96.88;100331.25;6120606;23;20489;-92
2023/03/02 04:39:15;;;;;;;1.20;1.08;;;;;;;4.33;96.22;100324.19;6095363;23;20029;-92
2023/03/02 04:41:44;;;;;;;0.40;0.40;;;;;;;4.34;89.13;100331.25;6094207;23;20006;-91
2023/03/02 04:44:10;;;;;;;0.70;0.47;;;;;;;4.36;91.80;100328.91;6094594;23;20522;-92
2023/03/02 04:46:35;;;;;;;0.40;0.40;;;;;;;4.34;91.06;100327.72;6094507;23;20097;-91
2023/03/02 04:49:01;;;;;;;2.22;2.03;;;;;;;4.36;87.15;100330.88;6118470;23;20010;-91
2023/03/02 04:51:30;;;;;;;1.48;1.38;;;;;;;4.34;85.00;100327.72;6119322;23;20018;-90
2023/03/02 04:53:59;;;;;;;0.38;0.38;;;;;;;4.35;82.90;100335.56;6093942;23;20061;-91
2023/03/02 04:56:25;;;;;;;1.08;1.05;;;;;;;4.32;79.35;100325.38;6070530;23;20014;-90
2023/03/02 04:58:51;;;;;;;0.82;0.82;;;;;;;4.34;78.59;100325.75;6069560;23;20024;-90
2023/03/02 05:01:18;;;;;;;0.95;0.90;;;;;;;4.35;72.91;100332.03;6094551;23;20354;-92
2023/03/02 05:03:44;;;;;;;0.73;0.73;;;;;;;4.31;72.92;100315.56;6118963;23;20014;-91
2023/03/02 05:06:10;;;;;;;1.92;1.10;;;;;;;4.37;74.83;100330.47;6093866;23;20022;-91
2023/03/02 05:08:36;;;;;;;1.58;1.25;;;;;;;4.27;72.37;100319.47;6094718;23;20469;-90
2023/03/02 05:11:02;;;;;;;1.13;0.95;;;;;;;4.34;69.89;100330.47;6093618;23;20002;-89
2023/03/02 05:13:28;;;;;;;2.60;1.42;;;;;;;4.29;70.27;100317.88;6118499;23;20017;-90
2023/03/02 05:15:56;;;;;;;1.15;1.05;;;;;;;4.27;72.12;100323.00;6069559;23;20018;-90
2023/03/02 05:18:22;;;;;;;3.70;1.25;;;;;;;4.28;70.09;100334.78;6094410;23;20038;-90
2023/03/02 05:20:49;;;;;;;1.42;1.33;;;;;;;4.31;73.96;100326.53;6094152;23;20023;-90
2023/03/02 05:23:22;;;;;;;2.83;1.30;;;;;;;4.27;71.14;100331.22;6118787;23;20081;-90
2023/03/02 05:25:52;;;;;;;1.63;1.38;;;;;;;4.28;72.39;100327.31;6118250;23;20521;-90
2023/03/02 05:28:18;;;;;;;1.30;1.30;;;;;;;4.26;72.18;100334.34;6117761;23;20474;-90
2023/03/02 05:30:45;;;;;;;1.75;1.20;;;;;;;4.29;73.07;100334.38;6116057;23;20104;-90
2023/03/02 05:33:10;;;;;;;6.78;2.20;;;;;;;4.29;74.54;100333.59;6117025;23;20028;-91
2023/03/02 05:35:36;;;;;;;0.85;0.85;;;;;;;4.12;74.86;100327.66;6117556;23;20018;-89
2023/03/02 05:38:02;;;;;;;2.78;1.50;;;;;;;4.20;74.35;100356.72;6118133;23;20013;-89
2023/03/02 05:40:28;;;;;;;0.50;0.50;;;;;;;4.22;72.29;100353.56;6117339;23;20410;-92
2023/03/02 05:42:54;;;;;;;1.00;0.65;;;;;;;4.18;71.25;100339.84;6116639;23;20044;-90
2023/03/02 05:45:27;;;;;;;0.70;0.70;;;;;;;4.20;70.28;100353.19;6091964;23;20363;-91
2023/03/02 05:47:55;;;;;;;0.75;0.75;;;;;;;3.97;70.14;100319.72;6093355;23;20022;-91
2023/03/02 05:50:21;;;;;;;2.38;1.13;;;;;;;4.19;69.64;100368.06;6115810;23;20014;-91
2023/03/02 05:52:47;;;;;;;0.55;0.55;;;;;;;4.15;70.00;100367.28;6116736;23;20022;-91
2023/03/02 05:55:14;;;;;;;1.08;0.95;;;;;;;4.10;71.13;100365.69;6116116;23;20010;-91
2023/03/02 05:57:40;;;;;;;0.35;0.35;;;;;;;4.10;69.04;100375.88;6116503;23;20018;-91
2023/03/02 06:00:09;;;;;;;3.45;0.95;;;;;;;4.11;70.09;100366.47;6115455;23;20112;-90
2023/03/02 06:02:40;;;;;;;2.25;1.17;;;;;;;4.02;71.83;100352.31;6071403;23;20100;-89
2023/03/02 06:05:17;;;;;;;1.58;0.52;;;;;;;4.13;72.00;100380.59;6117465;23;20320;-92
2023/03/02 06:07:43;;;;;;;1.08;1.05;;;;;;;4.13;72.14;100381.38;6116289;23;20084;-91
2023/03/02 06:10:11;;;;;;;3.20;0.90;;;;;;;4.14;72.68;100382.16;6069611;23;20044;-91
2023/03/02 06:12:37;;;;;;;1.90;0.80;;;;;;;4.14;70.58;100379.41;6118911;23;20025;-92
2023/03/02 06:15:05;;;;;;;0.25;0.25;;;;;;;4.11;70.60;100372.75;6119034;23;20410;-92
2023/03/02 06:17:31;;;;;;;0.80;0.80;;;;;;;4.11;70.76;100371.97;6121295;23;20013;-91
2023/03/02 06:19:56;;;;;;;3.47;1.75;;;;;;;4.15;71.28;100372.78;6119939;23;20093;-91
2023/03/02 06:22:22;;;;;;;1.55;1.35;;;;;;;4.06;69.87;100362.13;6120507;23;20022;-91
2023/03/02 06:24:47;;;;;;;1.50;1.40;;;;;;;4.22;71.51;100373.59;6097050;23;20025;-90
2023/03/02 06:27:14;;;;;;;0.60;0.60;;;;;;;4.10;64.25;100351.97;6121414;23;20010;-91
2023/03/02 06:29:39;;;;;;;1.15;0.88;;;;;;;4.23;66.66;100380.66;6095437;23;20097;-91
2023/03/02 06:32:05;;;;;;;9.13;1.88;;;;;;;4.23;63.53;100374.38;6120583;23;20037;-91
2023/03/02 06:34:31;;;;;;;0.40;0.40;;;;;;;4.24;63.78;100364.97;6095710;23;20022;-91
2023/03/02 06:36:56;;;;;;;0.90;0.90;;;;;;;4.25;64.43;100366.53;6120891;23;20002;-91
2023/03/02 06:39:22;;;;;;;0.22;0.22;;;;;;;4.32;66.97;100366.56;6096692;23;20010;-92
2023/03/02 06:41:48;;;;;;;1.02;1.02;;;;;;;4.27;66.48;100352.41;6072407;23;20006;-93
2023/03/02 06:44:15;;;;;;;0.35;0.35;;;;;;;4.37;68.15;100363.44;6121215;23;20466;-91
2023/03/02 06:46:41;;;;;;;0.43;0.43;;;;;;;4.39;66.10;100363.06;6120792;23;20431;-92
2023/03/02 06:49:07;;;;;;;0.17;0.17;;;;;;;4.39;65.02;100358.34;6096985;23;20514;-90
2023/03/02 06:51:33;;;;;;;4.22;0.75;;;;;;;4.38;64.59;100354.03;6097435;23;20085;-91
2023/03/02 06:53:59;;;;;;;0.85;0.85;;;;;;;4.39;59.82;100333.63;6096546;23;20021;-91
2023/03/02 06:56:25;;;;;;;1.45;1.35;;;;;;;4.40;60.95;100340.69;6097363;23;20009;-90
2023/03/02 06:58:51;;;;;;;0.10;0.10;;;;;;;4.45;61.22;100347.78;6096328;23;20506;-90
2023/03/02 07:01:16;;;;;;;0.60;0.60;;;;;;;4.54;61.32;100357.22;6121221;23;20014;-91
2023/03/02 07:03:43;;;;;;;0.45;0.45;;;;;;;4.60;64.12;100361.16;6119662;23;20025;-91
2023/03/02 07:06:11;;;;;;;1.55;1.23;;;;;;;4.58;58.40;100355.25;6096527;23;20469;-90
2023/03/02 07:08:37;;;;;;;1.92;1.08;;;;;;;4.55;57.08;100361.53;6120363;23;20042;-90
2023/03/02 07:11:11;;;;;;;0.77;0.73;;;;;;;4.58;59.77;100358.00;6120706;23;20017;-90
2023/03/02 07:13:40;;;;;;;1.08;0.35;;;;;;;4.66;60.72;100359.59;6120877;23;20014;-90
2023/03/02 07:16:09;;;;;;;1.52;1.25;;;;;;;4.75;60.92;100367.47;6072289;23;20482;-91
2023/03/02 07:18:35;;;;;;;0.52;0.50;;;;;;;4.78;58.12;100365.88;6096703;23;20006;-89
2023/03/02 07:21:01;;;;;;;1.55;1.48;;;;;;;4.87;60.70;100361.59;6120968;23;20014;-90
2023/03/02 07:23:45;;;;;;;0.93;0.88;;;;;;;4.91;58.24;100375.34;6121341;23;20014;-91
2023/03/02 07:26:10;;;;;;;;;;;;;;;4.96;57.61;100366.72;6097529;23;20485;-91
2023/03/02 07:28:40;;;;;;;0.85;0.85;;;;;;;4.93;54.91;100362.00;6071897;23;20317;-90
2023/03/02 07:31:07;;;;;;;0.70;0.70;;;;;;;5.00;54.94;100367.50;6094774;23;20130;-92
2023/03/02 07:33:33;;;;;;;1.52;1.42;;;;;;;4.86;55.80;100334.50;6118170;23;20017;-93
2023/03/02 07:36:06;;;;;;;1.13;0.88;;;;;;;5.03;55.79;100340.00;6094869;23;20018;-90
2023/03/02 07:38:32;;;;;;;1.70;1.38;;;;;;;5.22;52.89;100347.06;6120031;23;20350;-92
2023/03/02 07:40:58;;;;;;;0.85;0.85;;;;;;;5.26;52.26;100350.63;6119207;23;20010;-91
2023/03/02 07:43:24;;;;;;;1.00;1.00;;;;;;;5.20;52.25;100329.41;6094481;23;20442;-92
2023/03/02 07:45:50;;;;;;;1.27;1.17;;;;;;;5.04;52.68;100302.31;6093651;23;20021;-92
2023/03/02 07:48:26;;;;;;;2.50;2.10;;;;;;;5.13;52.71;100310.97;6119854;23;20060;-91
2023/03/02 07:50:59;;;;;;;0.55;0.55;;;;;;;5.55;52.06;100360.44;6118313;23;20117;-91
2023/03/02 07:53:25;;;;;;;1.27;0.73;;;;;;;5.45;50.68;100333.72;6118177;23;20018;-91
2023/03/02 07:55:50;;;;;;;0.90;0.90;;;;;;;5.44;50.42;100332.16;6119455;23;20014;-92
2023/03/02 07:58:16;;;;;;;1.75;1.58;;;;;;;5.44;49.92;100315.63;6116448;23;20092;-91
2023/03/02 08:00:51;;;;;;;0.50;0.50;;;;;;;5.74;49.69;100339.19;6093621;23;20017;-91
2023/03/02 08:03:17;;;;;;;1.08;0.77;;;;;;;5.67;49.86;100311.66;6120407;23;20022;-90
2023/03/02 08:05:42;;;;;;;0.35;0.35;;;;;;;5.84;49.79;100346.59;6095047;23;20020;-91
2023/03/02 08:08:08;;;;;;;1.27;0.95;;;;;;;5.99;51.53;100346.19;6120954;23;20018;-91
2023/03/02 08:10:34;;;;;;;0.13;0.13;;;;;;;5.99;50.99;100318.66;6118393;23;20052;-90
2023/03/02 08:13:13;;;;;;;2.58;1.63;;;;;;;6.36;49.78;100348.41;6120241;23;20014;-88
2023/03/02 08:15:39;;;;;;;1.30;1.05;;;;;;;6.35;49.64;100341.31;6095313;23;20033;-87
2023/03/02 08:18:05;;;;;;;1.20;1.15;;;;;;;6.28;48.53;100338.59;6120213;23;19998;-87
2023/03/02 08:20:30;;;;;;;1.15;1.10;;;;;;;6.43;49.25;100340.09;6121406;23;20077;-87
2023/03/02 08:22:56;;;;;;;0.68;0.68;;;;;;;6.37;49.66;100343.69;6120615;23;20016;-87
2023/03/02 08:25:21;;;;;;;2.20;1.50;;;;;;;6.20;50.89;100331.56;6143929;23;20026;-87
2023/03/02 08:27:56;;;;;;;1.38;1.27;;;;;;;6.28;50.54;100357.91;6120909;23;20006;-87
2023/03/02 08:30:22;;;;;;;0.85;0.80;;;;;;;6.29;51.19;100347.66;6096452;23;20056;-88
2023/03/02 08:32:47;;;;;;;0.22;0.22;;;;;;;6.25;49.79;100358.69;6143267;23;20010;-88
2023/03/02 08:35:13;;;;;;;0.28;0.28;;;;;;;6.12;50.77;100335.53;6143824;23;20038;-87
2023/03/02 08:37:38;;;;;;;0.43;0.43;;;;;;;6.18;50.46;100355.19;6122561;23;20021;-85
2023/03/02 08:40:18;;;;;;;2.13;1.45;;;;;;;6.20;51.28;100345.34;6122907;23;20010;-87
2023/03/02 08:42:45;;;;;;;2.38;1.25;;;;;;;6.27;51.31;100358.31;6121070;23;20017;-88
2023/03/02 08:45:11;;;;;;;1.52;1.42;;;;;;;6.34;51.66;100353.56;6120631;23;20014;-87
2023/03/02 08:47:37;;;;;;;0.10;0.10;;;;;;;6.36;51.01;100342.91;6120879;23;20006;-87
2023/03/02 08:50:04;;;;;;;1.05;0.93;;;;;;;6.34;51.81;100339.78;6120435;23;20014;-87
2023/03/02 08:52:43;;;;;;;0.95;0.95;;;;;;;6.31;49.79;100354.34;6096188;23;20006;-87
2023/03/02 08:55:09;;;;;;;2.83;1.65;;;;;;;6.25;50.36;100342.16;6120508;23;20021;-86
2023/03/02 08:57:35;;;;;;;0.93;0.88;;;;;;;6.21;50.54;100346.13;6096425;23;20017;-85
2023/03/02 09:00:00;;;;;;;1.35;1.17;;;;;;;6.12;50.62;100338.28;6117407;23;20165;-87
2023/03/02 09:02:26;;;;;;;1.02;1.02;;;;;;;6.24;51.19;100351.63;6120362;23;20025;-87
2023/03/02 09:05:06;;;;;;;0.75;0.75;;;;;;;6.20;52.07;100328.81;6119891;23;20025;-86
2023/03/02 09:07:32;;;;;;;0.88;0.88;;;;;;;6.40;51.97;100349.19;6120103;23;20018;-86
2023/03/02 09:09:57;;;;;;;0.32;0.32;;;;;;;6.28;53.40;100305.56;6095073;23;20025;-88
2023/03/02 09:12:23;;;;;;;0.73;0.73;;;;;;;6.12;50.84;100316.25;6122196;23;20014;-87
2023/03/02 09:14:48;;;;;;;2.25;2.05;;;;;;;6.18;52.49;100330.41;6121236;23;20010;-87
2023/03/02 09:17:27;;;;;;;0.70;0.70;;;;;;;6.31;54.10;100334.28;6096127;23;20088;-87
2023/03/02 09:19:52;;;;;;;1.15;1.05;;;;;;;6.46;54.50;100336.56;6119692;23;20060;-87
2023/03/02 09:22:18;;;;;;;0.82;0.82;;;;;;;6.55;54.64;100342.41;6118298;23;20040;-87
2023/03/02 09:24:44;;;;;;;0.10;0.10;;;;;;;6.62;55.25;100344.34;6116501;23;20471;-87
2023/03/02 09:27:09;;;;;;;2.15;1.75;;;;;;;6.70;54.66;100345.88;6117819;23;20026;-86
2023/03/02 09:29:35;;;;;;;0.82;0.82;;;;;;;6.72;54.53;100351.75;6117971;23;20061;-87
2023/03/02 09:32:09;;;;;;;0.40;0.40;;;;;;;6.69;54.31;100335.25;6118317;23;20030;-87
2023/03/02 09:34:35;;;;;;;5.03;2.17;;;;;;;6.75;53.71;100363.97;6119077;23;20334;-87
2023/03/02 09:37:00;;;;;;;0.93;0.93;;;;;;;6.69;53.39;100351.78;6119705;23;20012;-87
2023/03/02 09:39:26;;;;;;;1.17;1.13;;;;;;;6.69;53.22;100355.31;6119629;23;20017;-87
2023/03/02 09:42:15;;;;;;;0.80;0.80;;;;;;;6.82;53.31;100358.41;6119635;23;20006;-88
2023/03/02 09:45:32;;;;;;;1.05;0.95;;;;;;;6.83;52.61;100354.47;6141034;23;20041;-88
2023/03/02 09:48:33;;;;;;;1.15;1.05;;;;;;;6.78;50.26;100363.94;6102828;23;20032;-87
2023/03/02 09:51:32;;;;;;;1.48;1.38;;;;;;;6.66;50.74;100360.88;6113495;23;20104;-87
2023/03/02 09:54:19;;;;;;;0.08;0.08;;;;;;;6.78;52.17;100346.63;6119452;23;20073;-86
2023/03/02 09:56:58;;;;;;;0.47;0.45;;;;;;;6.87;54.39;100352.47;6095176;23;20010;-85
2023/03/02 09:59:35;;;;;;;1.23;0.85;;;;;;;6.89;56.54;100347.31;6119768;23;20339;-85
2023/03/02 10:02:48;;;;;;;2.60;2.08;;;;;;;6.86;57.34;100356.41;6121278;23;20021;-87
2023/03/02 10:05:22;;;;;;;2.08;1.15;;;;;;;6.87;57.03;100360.75;6094352;23;20089;-88
2023/03/02 10:07:47;;;;;;;1.33;1.25;;;;;;;6.79;59.04;100348.19;6143965;23;20410;-88
2023/03/02 10:10:36;;;;;;;2.05;1.70;;;;;;;6.69;63.59;100344.31;6119741;23;20022;-87
2023/03/02 10:13:19;;;;;;;2.42;1.17;;;;;;;6.68;66.04;100352.97;6118629;23;20092;-88
2023/03/02 10:16:09;;;;;;;3.90;1.55;;;;;;;6.63;65.90;100353.41;6119694;23;20026;-87
2023/03/02 10:18:56;;;;;;;1.90;1.10;;;;;;;6.66;64.34;100358.91;6119090;23;20014;-87
2023/03/02 10:21:22;;;;;;;0.45;0.45;;;;;;;6.65;65.38;100354.56;6121385;23;20018;-87
2023/03/02 10:24:23;;;;;;;1.65;0.73;;;;;;;6.64;63.12;100352.19;6121093;23;20013;-87
2023/03/02 10:26:53;;;;;;;0.50;0.50;;;;;;;6.66;62.80;100355.34;6119093;23;20018;-87
2023/03/02 10:29:56;;;;;;;1.48;1.38;;;;;;;6.32;61.55;100328.34;6119803;23;20457;-88
2023/03/02 10:32:29;;;;;;;1.38;1.27;;;;;;;6.59;63.58;100350.69;6099065;23;20022;-88
2023/03/02 10:34:54;;;;;;;0.38;0.38;;;;;;;6.45;63.77;100335.00;6118471;23;20018;-86
2023/03/02 10:37:29;;;;;;;2.80;2.55;;;;;;;6.49;64.63;100340.47;6093516;23;20024;-87
2023/03/02 10:39:55;;;;;;;0.77;0.77;;;;;;;6.35;65.25;100318.53;6119720;23;20438;-86
2023/03/02 10:42:27;;;;;;;0.47;0.47;;;;;;;6.57;65.23;100337.28;6094148;23;20002;-85
2023/03/02 10:45:18;;;;;;;2.07;0.63;;;;;;;6.54;65.71;100340.06;6119084;23;20044;-87
2023/03/02 10:47:44;;;;;;;1.33;1.08;;;;;;;6.41;63.92;100331.47;6095066;23;20269;-88
2023/03/02 10:50:22;;;;;;;0.57;0.57;;;;;;;6.50;65.69;100342.84;6143656;23;20065;-87
2023/03/02 10:52:49;;;;;;;1.65;1.48;;;;;;;6.44;65.65;100318.84;6120603;23;20033;-87
2023/03/02 10:55:31;;;;;;;1.73;1.63;;;;;;;6.33;66.52;100310.66;6094816;23;20785;-87
2023/03/02 10:58:06;;;;;;;2.33;2.10;;;;;;;6.52;67.47;100337.69;6094352;23;20053;-87
2023/03/02 11:00:33;;;;;;;1.33;1.23;;;;;;;6.33;67.38;100318.91;6118911;23;20014;-87
2023/03/02 11:03:00;;;;;;;1.88;1.17;;;;;;;6.41;69.93;100344.47;6118840;23;19997;-87
2023/03/02 11:05:43;;;;;;;2.10;1.48;;;;;;;6.33;70.82;100331.91;6094182;23;20600;-87
2023/03/02 11:08:19;;;;;;;4.47;2.75;;;;;;;6.30;69.81;100311.47;6088447;23;20105;-87
2023/03/02 11:10:56;;;;;;;0.88;0.88;;;;;;;6.39;69.15;100325.56;6083415;23;20017;-87
2023/03/02 11:13:34;;;;;;;0.90;0.88;;;;;;;6.27;70.07;100298.47;6094020;23;20026;-87
2023/03/02 11:16:01;;;;;;;1.95;1.75;;;;;;;6.47;71.53;100329.84;6118365;23;20020;-87
2023/03/02 11:18:32;;;;;;;1.67;1.58;;;;;;;6.47;73.01;100318.81;6118855;23;20474;-87
2023/03/02 11:21:20;;;;;;;2.00;1.90;;;;;;;6.41;74.71;100317.69;6119811;23;20024;-87
2023/03/02 11:24:43;;;;;;;4.40;3.78;;;;;;;6.39;77.16;100314.53;6117171;23;20022;-87
2023/03/02 11:27:18;;;;;;;1.30;1.25;;;;;;;6.36;79.60;100304.31;6093892;23;20414;-87
2023/03/02 11:30:03;;;;;;;5.85;2.85;;;;;;;6.55;80.26;100305.81;6093262;23;20026;-87
2023/03/02 11:32:49;;;;;;;3.50;2.25;;;;;;;6.49;81.46;100308.19;6094753;23;20076;-87
2023/03/02 11:35:32;;;;;;;2.55;1.95;;;;;;;6.61;81.27;100303.41;6070412;23;20014;-87
2023/03/02 11:38:18;;;;;;;1.80;1.65;;;;;;;6.55;82.86;100292.78;6094331;23;20026;-87
2023/03/02 11:40:48;;;;;;;2.58;1.83;;;;;;;6.67;81.74;100302.59;6119523;23;20021;-87
2023/03/02 11:43:14;;;;;;;1.35;1.25;;;;;;;6.65;80.93;100293.13;6095315;23;20406;-87
2023/03/02 11:45:45;;;;;;;3.05;2.75;;;;;;;6.66;80.86;100289.19;6069467;23;20065;-87
2023/03/02 11:48:35;;;;;;;5.18;4.47;;;;;;;6.84;81.35;100295.34;6120865;23;20073;-87
2023/03/02 11:51:11;;;;;;;2.28;2.08;;;;;;;6.98;81.81;100289.75;6094408;23;20332;-87